createdAt,value
2023-04-18T00:01:12.779Z,100037.16
2023-04-18T00:04:15.388Z,100039.56
2023-04-18T00:07:18.069Z,100047.91
2023-04-18T00:10:20.329Z,100053.28
2023-04-18T00:13:22.873Z,100048.19
2023-04-18T00:16:25.097Z,100051.16
2023-04-18T00:19:27.766Z,100049.84
2023-04-18T00:22:29.878Z,100057.06
2023-04-18T00:25:31.973Z,100057.56
2023-04-18T00:28:34.097Z,100059.13
2023-04-18T00:31:36.273Z,100056.44
2023-04-18T00:34:38.977Z,100060.19
2023-04-18T00:37:41.129Z,100060.19
2023-04-18T00:40:43.798Z,100059.91
2023-04-18T00:43:45.942Z,100062.59
2023-04-18T00:46:48.376Z,100056.69
2023-04-18T00:49:50.591Z,100061.84
2023-04-18T00:52:53.720Z,100058.34
2023-04-18T00:55:55.905Z,100067.25
2023-04-18T00:58:58.234Z,100064.50
2023-04-18T01:02:00.671Z,100056.97
2023-04-18T01:05:03.792Z,100053.50
2023-04-18T01:08:06.306Z,100056.97
2023-04-18T01:11:10.529Z,100052.41
2023-04-18T01:14:12.932Z,100060.72
2023-04-18T01:17:16.224Z,100048.88
2023-04-18T01:20:21.521Z,100052.63
2023-04-18T01:23:23.679Z,100052.41
2023-04-18T01:26:26.029Z,100047.00
2023-04-18T01:29:28.230Z,100048.34
2023-04-18T01:32:34.854Z,100050.75
2023-04-18T01:35:37.028Z,100043.78
2023-04-18T01:38:39.131Z,100041.84
2023-04-18T01:41:44.418Z,100051.00
2023-04-18T01:44:46.566Z,100056.69
2023-04-18T01:47:48.829Z,100046.41
2023-04-18T01:50:50.991Z,100051.28
2023-04-18T01:53:53.291Z,100052.06
2023-04-18T01:56:55.464Z,100046.13
2023-04-18T01:59:57.846Z,100049.91
2023-04-18T02:03:00.161Z,100053.66
2023-04-18T02:06:03.944Z,100051.78
2023-04-18T02:09:06.054Z,100056.63
2023-04-18T02:12:08.269Z,100051.22
2023-04-18T02:15:11.094Z,100051.50
2023-04-18T02:18:13.285Z,100055.53
2023-04-18T02:21:15.920Z,100057.44
2023-04-18T02:24:18.127Z,100054.19
2023-04-18T02:27:20.617Z,100060.63
2023-04-18T02:30:23.491Z,100057.13
2023-04-18T02:33:25.677Z,100056.59
2023-04-18T02:36:28.376Z,100056.06
2023-04-18T02:39:30.803Z,100059.84
2023-04-18T02:42:33.141Z,100061.72
2023-04-18T02:45:36.675Z,100059.56
2023-04-18T02:48:38.908Z,100057.63
2023-04-18T02:51:42.228Z,100064.97
2023-04-18T02:54:44.691Z,100060.63
2023-04-18T02:57:51.692Z,100064.66
2023-04-18T03:01:13.916Z,100070.59
2023-04-18T03:04:48.284Z,100069.50
2023-04-18T03:07:50.718Z,100075.09
2023-04-18T03:10:56.393Z,100077.56
2023-04-18T03:14:00.455Z,100070.28
2023-04-18T03:17:09.405Z,100075.72
2023-04-18T03:20:15.599Z,100070.88
2023-04-18T03:23:17.890Z,100066.25
2023-04-18T03:26:21.326Z,100075.72
2023-04-18T03:29:23.574Z,100078.09
2023-04-18T03:32:27.026Z,100075.66
2023-04-18T03:35:29.382Z,100077.22
2023-04-18T03:38:31.914Z,100077.47
2023-04-18T03:41:34.080Z,100069.41
2023-04-18T03:44:36.730Z,100080.19
2023-04-18T03:47:39.545Z,100081.53
2023-04-18T03:50:41.784Z,100082.56
2023-04-18T03:53:45.655Z,100086.84
2023-04-18T03:56:47.954Z,100084.34
2023-04-18T03:59:51.128Z,100084.88
2023-04-18T04:02:53.799Z,100085.63
2023-04-18T04:05:56.908Z,100094.72
2023-04-18T04:08:59.452Z,100096.59
2023-04-18T04:12:03.415Z,100105.44
2023-04-18T04:15:06.474Z,100111.66
2023-04-18T04:18:09.820Z,100111.09
2023-04-18T04:21:15.730Z,100111.09
2023-04-18T04:24:30.716Z,100111.38
2023-04-18T04:27:33.984Z,100116.44
2023-04-18T04:30:37.314Z,100120.00
2023-04-18T04:33:40.981Z,100120.56
2023-04-18T04:36:51.189Z,100113.03
2023-04-18T04:39:53.917Z,100126.22
2023-04-18T04:43:15.515Z,100121.63
2023-04-18T04:46:20.139Z,100134.41
2023-04-18T04:49:25.101Z,100131.19
2023-04-18T04:52:27.327Z,100132.75
2023-04-18T04:55:29.747Z,100140.22
2023-04-18T04:58:33.686Z,100139.94
2023-04-18T05:01:46.737Z,100134.03
2023-04-18T05:04:50.097Z,100145.31
2023-04-18T05:07:52.270Z,100142.56
2023-04-18T05:10:55.252Z,100139.81
2023-04-18T05:13:57.455Z,100138.50
2023-04-18T05:16:59.738Z,100135.03
2023-04-18T05:20:01.914Z,100145.25
2023-04-18T05:23:04.119Z,100150.34
2023-04-18T05:26:06.662Z,100149.31
2023-04-18T05:29:08.840Z,100147.47
2023-04-18T05:32:11.920Z,100150.53
2023-04-18T05:35:14.579Z,100157.59
2023-04-18T05:38:16.718Z,100158.16
2023-04-18T05:41:18.884Z,100163.28
2023-04-18T05:44:21.282Z,100156.13
2023-04-18T05:47:34.291Z,100167.19
2023-04-18T05:50:39.384Z,100154.56
2023-04-18T05:53:41.524Z,100159.19
2023-04-18T05:56:44.337Z,100163.28
2023-04-18T05:59:46.545Z,100150.59
2023-04-18T06:02:49.672Z,100163.28
2023-04-18T06:05:56.219Z,100151.97
2023-04-18T06:09:04.648Z,100166.38
2023-04-18T06:13:51.681Z,100169.06
2023-04-18T06:17:38.298Z,100178.84
2023-04-18T06:20:44.250Z,100148.63
2023-04-18T06:23:48.575Z,100152.13
2023-04-18T06:26:52.051Z,100151.97
2023-04-18T06:29:59.149Z,100147.88
2023-04-18T06:33:01.966Z,100154.34
2023-04-18T06:36:05.661Z,100173.31
2023-04-18T06:39:08.316Z,100167.38
2023-04-18T06:42:13.121Z,100180.88
2023-04-18T06:45:20.079Z,100179.03
2023-04-18T06:48:22.737Z,100185.50
2023-04-18T06:54:41.089Z,100177.75
2023-04-18T06:57:43.630Z,100185.88
2023-04-18T07:00:49.087Z,100172.34
2023-04-18T07:03:54.540Z,100183.19
2023-04-18T07:07:04.989Z,100183.47
2023-04-18T07:10:09.803Z,100193.19
2023-04-18T07:13:14.560Z,100192.94
2023-04-18T07:16:26.595Z,100200.75
2023-04-18T07:19:29.264Z,100200.78
2023-04-18T07:22:31.774Z,100194.84
2023-04-18T07:25:34.649Z,100184.59
2023-04-18T07:28:44.096Z,100194.56
2023-04-18T07:31:51.160Z,100205.41
2023-04-18T07:34:58.597Z,100210.00
2023-04-18T07:38:01.702Z,100181.97
2023-04-18T07:41:21.105Z,100202.78
2023-04-18T07:44:27.091Z,100215.53
2023-04-18T07:47:30.854Z,100209.06
2023-04-18T07:50:34.671Z,100190.44
2023-04-18T07:53:40.599Z,100200.44
2023-04-18T07:56:55.958Z,100200.69
2023-04-18T08:00:03.911Z,100198.56
2023-04-18T08:03:20.093Z,100190.44
2023-04-18T08:06:24.086Z,100226.91
2023-04-18T08:09:26.404Z,100219.09
2023-04-18T08:12:28.598Z,100226.66
2023-04-18T08:15:32.781Z,100213.16
2023-04-18T08:18:35.840Z,100224.22
2023-04-18T08:21:39.179Z,100215.81
2023-04-18T08:24:46.444Z,100215.59
2023-04-18T08:27:53.469Z,100218.81
2023-04-18T08:30:56.625Z,100227.19
2023-04-18T08:33:58.836Z,100225.28
2023-04-18T08:37:01.079Z,100227.44
2023-04-18T08:40:05.708Z,100233.38
2023-04-18T08:43:09.421Z,100232.25
2023-04-18T08:46:13.115Z,100239.78
2023-04-18T08:49:17.587Z,100232.72
2023-04-18T08:52:26.295Z,100225.13
2023-04-18T08:55:30.611Z,100227.28
2023-04-18T08:59:08.960Z,100225.66
2023-04-18T09:02:14.300Z,100208.38
2023-04-18T09:05:20.023Z,100216.19
2023-04-18T09:08:26.044Z,100229.16
2023-04-18T09:11:29.960Z,100227.25
2023-04-18T09:14:32.695Z,100222.97
2023-04-18T09:17:46.049Z,100229.97
2023-04-18T09:20:49.826Z,100227.25
2023-04-18T09:24:08.573Z,100230.50
2023-04-18T09:27:14.286Z,100231.84
2023-04-18T09:30:39.750Z,100228.59
2023-04-18T09:33:52.804Z,100222.06
2023-04-18T09:37:15.429Z,100228.53
2023-04-18T09:40:22.221Z,100228.50
2023-04-18T09:43:24.377Z,100229.28
2023-04-18T09:46:27.837Z,100226.31
2023-04-18T09:49:33.237Z,100229.81
2023-04-18T09:52:40.271Z,100225.44
2023-04-18T09:55:45.560Z,100221.69
2023-04-18T09:59:14.047Z,100214.31
2023-04-18T10:02:23.068Z,100221.34
2023-04-18T10:05:32.342Z,100212.38
2023-04-18T10:08:34.871Z,100215.06
2023-04-18T10:11:37.269Z,100209.03
2023-04-18T10:14:42.936Z,100211.69
2023-04-18T10:18:00.629Z,100209.75
2023-04-18T10:21:09.163Z,100210.00
2023-04-18T10:24:49.971Z,100216.47
2023-04-18T10:28:02.944Z,100217.28
2023-04-18T10:31:05.670Z,100211.59
2023-04-18T10:34:07.952Z,100212.13
2023-04-18T10:37:12.730Z,100208.88
2023-04-18T10:40:15.415Z,100210.00
2023-04-18T10:43:17.621Z,100210.50
2023-04-18T10:46:31.168Z,100207.00
2023-04-18T10:49:38.065Z,100212.94
2023-04-18T10:52:41.683Z,100206.16
2023-04-18T10:55:44.751Z,100206.16
2023-04-18T10:58:54.202Z,100204.75
2023-04-18T11:02:10.126Z,100194.16
2023-04-18T11:05:15.516Z,100200.63
2023-04-18T11:08:24.458Z,100199.25
2023-04-18T11:11:26.724Z,100190.81
2023-04-18T11:14:40.298Z,100198.16
2023-04-18T11:17:45.329Z,100202.47
2023-04-18T11:20:51.325Z,100199.19
2023-04-18T11:23:55.749Z,100205.94
2023-04-18T11:26:58.416Z,100209.75
2023-04-18T11:30:01.628Z,100205.41
2023-04-18T11:33:13.962Z,100215.72
2023-04-18T11:36:16.165Z,100215.41
2023-04-18T11:39:22.301Z,100214.59
2023-04-18T11:42:28.612Z,100210.56
2023-04-18T11:45:31.278Z,100210.31
2023-04-18T11:48:41.171Z,100211.94
2023-04-18T11:51:46.326Z,100202.41
2023-04-18T11:54:52.389Z,100192.91
2023-04-18T11:58:01.723Z,100198.78
2023-04-18T12:01:17.754Z,100192.16
2023-04-18T12:04:20.543Z,100193.91
2023-04-18T12:07:40.065Z,100191.06
2023-04-18T12:10:50.691Z,100197.13
2023-04-18T12:13:56.231Z,100195.53
2023-04-18T12:16:58.649Z,100195.63
2023-04-18T12:20:06.195Z,100195.25
2023-04-18T12:23:08.452Z,100203.41
2023-04-18T12:26:16.522Z,100201.81
2023-04-18T12:29:19.047Z,100197.81
2023-04-18T12:32:21.985Z,100201.03
2023-04-18T12:35:25.108Z,100205.34
2023-04-18T12:38:27.552Z,100209.66
2023-04-18T12:41:31.903Z,100208.88
2023-04-18T12:44:34.802Z,100203.06
2023-04-18T12:47:41.502Z,100204.03
2023-04-18T12:50:46.160Z,100200.81
2023-04-18T12:53:48.270Z,100193.41
2023-04-18T12:56:50.515Z,100194.44
2023-04-18T12:59:52.688Z,100189.25
2023-04-18T13:02:55.047Z,100196.22
2023-04-18T13:05:57.270Z,100196.28
2023-04-18T13:08:59.387Z,100186.66
2023-04-18T13:12:02.510Z,100193.41
2023-04-18T13:15:06.806Z,100200.53
2023-04-18T13:18:09.130Z,100200.38
2023-04-18T13:21:11.294Z,100203.84
2023-04-18T13:24:13.521Z,100203.84
2023-04-18T13:27:15.949Z,100194.88
2023-04-18T13:30:18.210Z,100193.19
2023-04-18T13:33:20.621Z,100202.50
2023-04-18T13:36:23.998Z,100196.50
2023-04-18T13:39:26.605Z,100203.69
2023-04-18T13:42:28.836Z,100198.69
2023-04-18T13:45:30.999Z,100200.53
2023-04-18T13:48:33.104Z,100191.97
2023-04-18T13:51:35.331Z,100195.72
2023-04-18T13:54:37.730Z,100187.00
2023-04-18T13:57:41.133Z,100194.63
2023-04-18T14:00:43.454Z,100199.66
2023-04-18T14:03:47.520Z,100193.16
2023-04-18T14:06:50.495Z,100190.03
2023-04-18T14:09:53.882Z,100192.16
2023-04-18T14:12:56.602Z,100195.50
2023-04-18T14:15:59.736Z,100195.22
2023-04-18T14:19:02.402Z,100177.34
2023-04-18T14:22:04.515Z,100174.34
2023-04-18T14:25:10.000Z,100179.72
2023-04-18T14:28:12.213Z,100173.44
2023-04-18T14:31:15.289Z,100185.72
2023-04-18T14:34:17.435Z,100186.75
2023-04-18T14:37:19.557Z,100178.41
2023-04-18T14:40:22.602Z,100182.41
2023-04-18T14:43:25.212Z,100184.03
2023-04-18T14:46:28.317Z,100179.41
2023-04-18T14:49:30.589Z,100178.78
2023-04-18T14:52:32.696Z,100176.16
2023-04-18T14:55:34.883Z,100182.81
2023-04-18T14:58:37.121Z,100182.09
2023-04-18T15:01:41.473Z,100187.13
2023-04-18T15:04:43.679Z,100180.00
2023-04-18T15:07:46.924Z,100174.31
2023-04-18T15:10:51.184Z,100186.63
2023-04-18T15:13:53.439Z,100180.78
2023-04-18T15:16:55.942Z,100181.59
2023-04-18T15:20:01.414Z,100189.56
2023-04-18T15:23:03.612Z,100191.78
2023-04-18T15:26:06.130Z,100189.34
2023-04-18T15:29:08.438Z,100191.28
2023-04-18T15:32:11.021Z,100181.63
2023-04-18T15:35:13.228Z,100180.59
2023-04-18T15:38:15.441Z,100184.63
2023-04-18T15:41:17.547Z,100183.00
2023-04-18T15:44:19.814Z,100185.84
2023-04-18T15:47:21.947Z,100189.06
2023-04-18T15:50:24.264Z,100189.97
2023-04-18T15:53:29.592Z,100180.19
2023-04-18T15:56:33.601Z,100178.47
2023-04-18T15:59:36.307Z,100184.41
2023-04-18T16:02:38.686Z,100185.22
2023-04-18T16:05:41.428Z,100189.66
2023-04-18T16:08:43.614Z,100184.53
2023-04-18T16:11:45.903Z,100192.28
2023-04-18T16:14:48.003Z,100188.94
2023-04-18T16:17:52.809Z,100192.91
2023-04-18T16:20:54.938Z,100202.06
2023-04-18T16:23:57.041Z,100200.13
2023-04-18T16:26:59.219Z,100201.41
2023-04-18T16:30:01.452Z,100198.84
2023-04-18T16:33:03.974Z,100211.22
2023-04-18T16:36:06.940Z,100215.41
2023-04-18T16:39:09.076Z,100215.59
2023-04-18T16:42:12.471Z,100215.59
2023-04-18T16:45:17.262Z,100215.22
2023-04-18T16:48:19.387Z,100211.38
2023-04-18T16:51:24.370Z,100222.56
2023-04-18T16:54:26.530Z,100218.25
2023-04-18T16:57:28.695Z,100220.25
2023-04-18T17:00:36.974Z,100214.16
2023-04-18T17:03:40.965Z,100222.66
2023-04-18T17:06:43.736Z,100215.81
2023-04-18T17:09:45.949Z,100221.88
2023-04-18T17:12:49.335Z,100218.28
2023-04-18T17:15:51.542Z,100220.50
2023-04-18T17:18:53.746Z,100216.31
2023-04-18T17:21:56.087Z,100214.72
2023-04-18T17:24:58.254Z,100221.34
2023-04-18T17:28:02.230Z,100222.25
2023-04-18T17:31:04.651Z,100215.34
2023-04-18T17:34:10.909Z,100221.38
2023-04-18T17:37:13.685Z,100221.75
2023-04-18T17:40:15.810Z,100231.81
2023-04-18T17:43:18.034Z,100223.47
2023-04-18T17:46:20.359Z,100220.84
2023-04-18T17:49:22.677Z,100221.38
2023-04-18T17:52:24.959Z,100234.94
2023-04-18T17:55:27.159Z,100241.47
2023-04-18T17:58:29.808Z,100241.50
2023-04-18T18:01:32.895Z,100243.19
2023-04-18T18:04:35.305Z,100241.34
2023-04-18T18:07:38.313Z,100250.00
2023-04-18T18:10:41.280Z,100247.88
2023-04-18T18:13:43.772Z,100246.03
2023-04-18T18:16:46.292Z,100252.84
2023-04-18T18:19:48.416Z,100260.19
2023-04-18T18:22:51.378Z,100254.25
2023-04-18T18:25:53.552Z,100255.34
2023-04-18T18:28:55.727Z,100263.50
2023-04-18T18:31:57.896Z,100252.19
2023-04-18T18:35:00.179Z,100265.94
2023-04-18T18:38:02.329Z,100263.00
2023-04-18T18:41:04.711Z,100273.53
2023-04-18T18:44:07.087Z,100271.94
2023-04-18T18:47:09.264Z,100271.63
2023-04-18T18:50:11.496Z,100270.28
2023-04-18T18:53:16.810Z,100277.34
2023-04-18T18:56:19.251Z,100278.69
2023-04-18T18:59:21.404Z,100288.97
2023-04-18T19:02:23.814Z,100292.22
2023-04-18T19:05:26.180Z,100301.97
2023-04-18T19:08:28.345Z,100300.09
2023-04-18T19:11:30.657Z,100309.28
2023-04-18T19:14:33.049Z,100311.72
2023-04-18T19:17:35.342Z,100322.53
2023-04-18T19:20:40.291Z,100317.69
2023-04-18T19:23:42.482Z,100317.94
2023-04-18T19:26:44.670Z,100312.56
2023-04-18T19:29:46.805Z,100316.34
2023-04-18T19:32:49.060Z,100314.72
2023-04-18T19:35:51.605Z,100328.25
2023-04-18T19:38:53.836Z,100317.41
2023-04-18T19:41:56.053Z,100319.03
2023-04-18T19:44:59.304Z,100329.31
2023-04-18T19:48:01.531Z,100334.72
2023-04-18T19:51:04.747Z,100316.63
2023-04-18T19:54:07.036Z,100336.59
2023-04-18T19:57:09.151Z,100325.53
2023-04-18T20:00:13.032Z,100337.97
2023-04-18T20:03:17.012Z,100331.72
2023-04-18T20:06:20.112Z,100337.13
2023-04-18T20:09:22.359Z,100350.94
2023-04-18T20:12:24.554Z,100338.75
2023-04-18T20:15:26.709Z,100337.66
2023-04-18T20:18:30.320Z,100330.38
2023-04-18T20:21:32.518Z,100341.72
2023-04-18T20:24:34.905Z,100337.69
2023-04-18T20:27:37.176Z,100336.59
2023-04-18T20:30:39.479Z,100342.28
2023-04-18T20:33:41.817Z,100334.66
2023-04-18T20:36:44.689Z,100345.22
2023-04-18T20:39:47.463Z,100338.75
2023-04-18T20:42:49.704Z,100337.34
2023-04-18T20:45:52.000Z,100333.28
2023-04-18T20:48:54.156Z,100339.25
2023-04-18T20:51:56.496Z,100334.38
2023-04-18T20:54:58.702Z,100337.09
2023-04-18T20:58:00.880Z,100329.50
2023-04-18T21:01:03.169Z,100334.91
2023-04-18T21:04:05.399Z,100332.75
2023-04-18T21:07:07.586Z,100336.53
2023-04-18T21:10:09.890Z,100343.56
2023-04-18T21:13:12.661Z,100339.25
2023-04-18T21:16:15.044Z,100336.50
2023-04-18T21:19:17.288Z,100331.41
2023-04-18T21:22:19.503Z,100331.09
2023-04-18T21:25:21.707Z,100339.50
2023-04-18T21:28:23.800Z,100333.53
2023-04-18T21:31:27.308Z,100335.69
2023-04-18T21:34:29.490Z,100336.50
2023-04-18T21:37:31.937Z,100324.91
2023-04-18T21:40:34.115Z,100325.19
2023-04-18T21:43:36.273Z,100320.28
2023-04-18T21:46:38.427Z,100320.84
2023-04-18T21:49:41.796Z,100323.00
2023-04-18T21:52:43.994Z,100315.72
2023-04-18T21:55:46.187Z,100318.13
2023-04-18T21:58:49.400Z,100313.00
2023-04-18T22:01:51.623Z,100320.56
2023-04-18T22:04:53.753Z,100312.97
2023-04-18T22:07:58.525Z,100311.09
2023-04-18T22:11:01.060Z,100317.03
2023-04-18T22:14:03.274Z,100310.56
2023-04-18T22:17:05.544Z,100310.53
2023-04-18T22:20:08.389Z,100312.44
2023-04-18T22:23:11.263Z,100306.75
2023-04-18T22:26:13.542Z,100304.88
2023-04-18T22:29:15.962Z,100303.75
2023-04-18T22:32:18.208Z,100301.88
2023-04-18T22:35:20.479Z,100297.53
2023-04-18T22:38:22.588Z,100294.84
2023-04-18T22:41:24.779Z,100288.34
2023-04-18T22:44:27.008Z,100293.72
2023-04-18T22:47:29.183Z,100298.31
2023-04-18T22:50:31.405Z,100286.97
2023-04-18T22:53:33.585Z,100282.13
2023-04-18T22:56:35.793Z,100279.44
2023-04-18T22:59:38.019Z,100270.50
2023-04-18T23:02:40.726Z,100272.66
2023-04-18T23:05:43.028Z,100261.59
2023-04-18T23:08:45.227Z,100259.72
2023-04-18T23:11:47.440Z,100260.22
2023-04-18T23:14:49.705Z,100259.72
2023-04-18T23:17:53.088Z,100255.13
2023-04-18T23:20:55.473Z,100245.97
2023-04-18T23:23:58.039Z,100251.63
2023-04-18T23:27:01.477Z,100246.22
2023-04-18T23:30:04.461Z,100248.94
2023-04-18T23:33:06.693Z,100243.78
2023-04-18T23:36:09.171Z,100239.94
2023-04-18T23:39:11.504Z,100229.72
2023-04-18T23:42:13.673Z,100230.28
2023-04-18T23:45:15.925Z,100223.78
2023-04-18T23:48:18.080Z,100219.47
2023-04-18T23:51:20.338Z,100218.63
2023-04-18T23:54:22.511Z,100213.75
2023-04-18T23:57:24.758Z,100208.38
